sensor_id;sensor_type;location;lat;lon;timestamp;temperature;humidity
56861;DHT22;42744;51.094;3.490;2022-12-16T00:02:03;-2.10;99.90
56861;DHT22;42744;51.094;3.490;2022-12-16T00:04:29;-2.10;99.90
56861;DHT22;42744;51.094;3.490;2022-12-16T00:06:55;-2.10;99.90
56861;DHT22;42744;51.094;3.490;2022-12-16T00:09:21;-2.10;99.90
56861;DHT22;42744;51.094;3.490;2022-12-16T00:11:48;-2.20;99.90
56861;DHT22;42744;51.094;3.490;2022-12-16T00:14:14;-2.20;99.90
56861;DHT22;42744;51.094;3.490;2022-12-16T00:16:40;-2.20;99.90
56861;DHT22;42744;51.094;3.490;2022-12-16T00:19:06;-2.20;99.90
56861;DHT22;42744;51.094;3.490;2022-12-16T00:21:32;-2.20;99.90
56861;DHT22;42744;51.094;3.490;2022-12-16T00:23:58;-2.20;99.90
56861;DHT22;42744;51.094;3.490;2022-12-16T00:26:24;-2.20;99.90
56861;DHT22;42744;51.094;3.490;2022-12-16T00:28:50;-2.20;99.90
56861;DHT22;42744;51.094;3.490;2022-12-16T00:31:16;-2.20;99.90
56861;DHT22;42744;51.094;3.490;2022-12-16T00:33:42;-2.20;99.90
56861;DHT22;42744;51.094;3.490;2022-12-16T00:36:09;-2.20;99.90
56861;DHT22;42744;51.094;3.490;2022-12-16T00:38:35;-2.30;99.90
56861;DHT22;42744;51.094;3.490;2022-12-16T00:41:01;-2.30;99.90
56861;DHT22;42744;51.094;3.490;2022-12-16T00:43:27;-2.20;99.90
56861;DHT22;42744;51.094;3.490;2022-12-16T00:45:53;-2.20;99.90
56861;DHT22;42744;51.094;3.490;2022-12-16T00:48:22;-2.20;99.90
56861;DHT22;42744;51.094;3.490;2022-12-16T00:50:49;-2.30;99.90
56861;DHT22;42744;51.094;3.490;2022-12-16T00:53:16;-2.30;99.90
56861;DHT22;42744;51.094;3.490;2022-12-16T00:55:42;-2.30;99.90
56861;DHT22;42744;51.094;3.490;2022-12-16T00:58:08;-2.30;99.90
56861;DHT22;42744;51.094;3.490;2022-12-16T01:00:35;-2.30;99.90
56861;DHT22;42744;51.094;3.490;2022-12-16T01:03:01;-2.30;99.90
56861;DHT22;42744;51.094;3.490;2022-12-16T01:05:27;-2.20;99.90
56861;DHT22;42744;51.094;3.490;2022-12-16T01:07:54;-2.20;99.90
56861;DHT22;42744;51.094;3.490;2022-12-16T01:10:22;-2.20;99.90
56861;DHT22;42744;51.094;3.490;2022-12-16T01:12:48;-2.10;99.90
56861;DHT22;42744;51.094;3.490;2022-12-16T01:15:15;-2.10;99.90
56861;DHT22;42744;51.094;3.490;2022-12-16T01:17:41;-2.10;99.90
56861;DHT22;42744;51.094;3.490;2022-12-16T01:20:08;-2.20;99.90
56861;DHT22;42744;51.094;3.490;2022-12-16T01:22:35;-2.20;99.90
56861;DHT22;42744;51.094;3.490;2022-12-16T01:25:05;-2.20;99.90
56861;DHT22;42744;51.094;3.490;2022-12-16T01:27:34;-2.10;99.90
56861;DHT22;42744;51.094;3.490;2022-12-16T01:30:00;-2.10;99.90
56861;DHT22;42744;51.094;3.490;2022-12-16T01:32:26;-2.10;99.90
56861;DHT22;42744;51.094;3.490;2022-12-16T01:34:53;-2.10;99.90
56861;DHT22;42744;51.094;3.490;2022-12-16T01:37:19;-2.10;99.90
56861;DHT22;42744;51.094;3.490;2022-12-16T01:39:46;-2.10;99.90
56861;DHT22;42744;51.094;3.490;2022-12-16T01:42:18;-2.10;99.90
56861;DHT22;42744;51.094;3.490;2022-12-16T01:44:50;-2.10;99.90
56861;DHT22;42744;51.094;3.490;2022-12-16T01:47:20;-2.10;99.90
56861;DHT22;42744;51.094;3.490;2022-12-16T01:50:03;-2.10;99.90
56861;DHT22;42744;51.094;3.490;2022-12-16T01:52:41;-2.00;99.90
56861;DHT22;42744;51.094;3.490;2022-12-16T01:55:23;-2.10;99.90
56861;DHT22;42744;51.094;3.490;2022-12-16T01:58:07;-2.20;99.90
56861;DHT22;42744;51.094;3.490;2022-12-16T02:00:36;-2.20;99.90
56861;DHT22;42744;51.094;3.490;2022-12-16T02:03:03;-2.20;99.90
56861;DHT22;42744;51.094;3.490;2022-12-16T02:05:30;-2.10;99.90
56861;DHT22;42744;51.094;3.490;2022-12-16T02:13:25;-2.10;99.90
56861;DHT22;42744;51.094;3.490;2022-12-16T02:32:18;-2.50;99.90
56861;DHT22;42744;51.094;3.490;2022-12-16T02:40:32;-2.50;99.90
56861;DHT22;42744;51.094;3.490;2022-12-16T02:43:03;-2.40;99.90
56861;DHT22;42744;51.094;3.490;2022-12-16T02:45:33;-2.50;99.90
56861;DHT22;42744;51.094;3.490;2022-12-16T02:48:00;-2.50;99.90
56861;DHT22;42744;51.094;3.490;2022-12-16T02:51:08;-2.60;99.90
56861;DHT22;42744;51.094;3.490;2022-12-16T02:53:16;-2.60;99.90
56861;DHT22;42744;51.094;3.490;2022-12-16T02:55:48;-2.60;99.90
56861;DHT22;42744;51.094;3.490;2022-12-16T02:58:17;-2.60;99.90
56861;DHT22;42744;51.094;3.490;2022-12-16T03:03:48;-2.60;99.90
56861;DHT22;42744;51.094;3.490;2022-12-16T03:06:19;-2.60;99.90
56861;DHT22;42744;51.094;3.490;2022-12-16T03:08:50;-2.50;99.90
56861;DHT22;42744;51.094;3.490;2022-12-16T03:11:17;-2.40;99.90
56861;DHT22;42744;51.094;3.490;2022-12-16T03:13:48;-2.40;99.90
56861;DHT22;42744;51.094;3.490;2022-12-16T03:16:19;-2.30;99.90
56861;DHT22;42744;51.094;3.490;2022-12-16T03:18:55;-2.20;99.90
56861;DHT22;42744;51.094;3.490;2022-12-16T03:21:26;-2.10;99.90
56861;DHT22;42744;51.094;3.490;2022-12-16T03:23:57;-1.90;99.90
56861;DHT22;42744;51.094;3.490;2022-12-16T03:29:01;-1.90;99.90
56861;DHT22;42744;51.094;3.490;2022-12-16T03:31:45;-1.80;99.90
56861;DHT22;42744;51.094;3.490;2022-12-16T03:34:33;-1.90;99.90
56861;DHT22;42744;51.094;3.490;2022-12-16T03:37:07;-2.00;99.90
56861;DHT22;42744;51.094;3.490;2022-12-16T03:39:39;-1.80;99.90
56861;DHT22;42744;51.094;3.490;2022-12-16T03:42:07;-1.70;99.90
56861;DHT22;42744;51.094;3.490;2022-12-16T03:44:34;-1.60;99.90
56861;DHT22;42744;51.094;3.490;2022-12-16T03:47:01;-1.50;99.90
56861;DHT22;42744;51.094;3.490;2022-12-16T03:49:27;-1.40;99.90
56861;DHT22;42744;51.094;3.490;2022-12-16T03:51:53;-1.40;99.90
56861;DHT22;42744;51.094;3.490;2022-12-16T03:54:20;-1.50;99.90
56861;DHT22;42744;51.094;3.490;2022-12-16T03:56:46;-1.50;99.90
56861;DHT22;42744;51.094;3.490;2022-12-16T03:59:12;-1.60;99.90
56861;DHT22;42744;51.094;3.490;2022-12-16T04:01:39;-1.60;99.90
56861;DHT22;42744;51.094;3.490;2022-12-16T04:04:05;-1.60;99.90
56861;DHT22;42744;51.094;3.490;2022-12-16T04:06:31;-1.70;99.90
56861;DHT22;42744;51.094;3.490;2022-12-16T04:08:57;-1.70;99.90
56861;DHT22;42744;51.094;3.490;2022-12-16T04:11:23;-1.80;99.90
56861;DHT22;42744;51.094;3.490;2022-12-16T04:14:08;-1.90;99.90
56861;DHT22;42744;51.094;3.490;2022-12-16T04:16:54;-1.90;99.90
56861;DHT22;42744;51.094;3.490;2022-12-16T04:19:39;-1.90;99.90
56861;DHT22;42744;51.094;3.490;2022-12-16T04:22:28;-2.00;99.90
56861;DHT22;42744;51.094;3.490;2022-12-16T04:25:16;-2.00;99.90
56861;DHT22;42744;51.094;3.490;2022-12-16T04:27:44;-2.00;99.90
56861;DHT22;42744;51.094;3.490;2022-12-16T04:30:16;-2.00;99.90
56861;DHT22;42744;51.094;3.490;2022-12-16T04:32:55;-2.00;99.90
56861;DHT22;42744;51.094;3.490;2022-12-16T04:35:40;-2.00;99.90
56861;DHT22;42744;51.094;3.490;2022-12-16T04:38:26;-2.10;99.90
56861;DHT22;42744;51.094;3.490;2022-12-16T04:41:12;-2.20;99.90
56861;DHT22;42744;51.094;3.490;2022-12-16T04:43:57;-2.30;99.90
56861;DHT22;42744;51.094;3.490;2022-12-16T04:46:42;-2.30;99.90
56861;DHT22;42744;51.094;3.490;2022-12-16T04:49:26;-2.30;99.90
56861;DHT22;42744;51.094;3.490;2022-12-16T04:52:12;-2.40;99.90
56861;DHT22;42744;51.094;3.490;2022-12-16T04:54:56;-2.50;99.90
56861;DHT22;42744;51.094;3.490;2022-12-16T04:57:46;-2.50;99.90
56861;DHT22;42744;51.094;3.490;2022-12-16T05:00:31;-2.60;99.90
56861;DHT22;42744;51.094;3.490;2022-12-16T05:03:16;-2.60;99.90
56861;DHT22;42744;51.094;3.490;2022-12-16T05:06:04;-2.60;99.90
56861;DHT22;42744;51.094;3.490;2022-12-16T05:08:49;-2.60;99.90
56861;DHT22;42744;51.094;3.490;2022-12-16T05:11:34;-2.60;99.90
56861;DHT22;42744;51.094;3.490;2022-12-16T05:14:18;-2.60;99.90
56861;DHT22;42744;51.094;3.490;2022-12-16T05:17:04;-2.60;99.90
56861;DHT22;42744;51.094;3.490;2022-12-16T05:19:48;-2.60;99.90
56861;DHT22;42744;51.094;3.490;2022-12-16T05:22:33;-2.60;99.90
56861;DHT22;42744;51.094;3.490;2022-12-16T05:25:18;-2.70;99.90
56861;DHT22;42744;51.094;3.490;2022-12-16T05:28:03;-2.70;99.90
56861;DHT22;42744;51.094;3.490;2022-12-16T05:30:48;-2.70;99.90
56861;DHT22;42744;51.094;3.490;2022-12-16T05:33:36;-2.70;99.90
56861;DHT22;42744;51.094;3.490;2022-12-16T05:36:21;-2.70;99.90
56861;DHT22;42744;51.094;3.490;2022-12-16T05:39:06;-2.80;99.90
56861;DHT22;42744;51.094;3.490;2022-12-16T05:41:50;-2.80;99.90
56861;DHT22;42744;51.094;3.490;2022-12-16T05:44:35;-2.90;99.90
56861;DHT22;42744;51.094;3.490;2022-12-16T05:47:19;-3.00;99.90
56861;DHT22;42744;51.094;3.490;2022-12-16T05:50:05;-3.00;99.90
56861;DHT22;42744;51.094;3.490;2022-12-16T05:53:06;-3.00;99.90
56861;DHT22;42744;51.094;3.490;2022-12-16T05:55:51;-3.00;99.90
56861;DHT22;42744;51.094;3.490;2022-12-16T05:58:36;-3.00;99.90
56861;DHT22;42744;51.094;3.490;2022-12-16T06:01:21;-3.00;99.90
56861;DHT22;42744;51.094;3.490;2022-12-16T06:04:07;-3.10;99.90
56861;DHT22;42744;51.094;3.490;2022-12-16T06:06:51;-3.10;99.90
56861;DHT22;42744;51.094;3.490;2022-12-16T06:09:36;-3.10;99.90
56861;DHT22;42744;51.094;3.490;2022-12-16T06:12:21;-3.10;99.90
56861;DHT22;42744;51.094;3.490;2022-12-16T06:15:06;-3.10;99.90
56861;DHT22;42744;51.094;3.490;2022-12-16T06:17:53;-3.20;99.90
56861;DHT22;42744;51.094;3.490;2022-12-16T06:20:39;-3.20;99.90
56861;DHT22;42744;51.094;3.490;2022-12-16T06:23:24;-3.30;99.90
56861;DHT22;42744;51.094;3.490;2022-12-16T06:26:08;-3.30;99.90
56861;DHT22;42744;51.094;3.490;2022-12-16T06:29:13;-3.30;99.90
56861;DHT22;42744;51.094;3.490;2022-12-16T06:31:57;-3.30;99.90
56861;DHT22;42744;51.094;3.490;2022-12-16T06:34:42;-3.30;99.90
56861;DHT22;42744;51.094;3.490;2022-12-16T06:37:27;-3.30;99.90
56861;DHT22;42744;51.094;3.490;2022-12-16T06:40:11;-3.30;99.90
56861;DHT22;42744;51.094;3.490;2022-12-16T06:42:56;-3.30;99.90
56861;DHT22;42744;51.094;3.490;2022-12-16T06:45:46;-3.30;99.90
56861;DHT22;42744;51.094;3.490;2022-12-16T06:48:31;-3.40;99.90
56861;DHT22;42744;51.094;3.490;2022-12-16T06:51:15;-3.50;99.90
56861;DHT22;42744;51.094;3.490;2022-12-16T06:54:01;-3.50;99.90
56861;DHT22;42744;51.094;3.490;2022-12-16T06:56:46;-3.50;99.90
56861;DHT22;42744;51.094;3.490;2022-12-16T06:59:31;-3.50;99.90
56861;DHT22;42744;51.094;3.490;2022-12-16T07:02:16;-3.50;99.90
56861;DHT22;42744;51.094;3.490;2022-12-16T07:05:03;-3.40;99.90
56861;DHT22;42744;51.094;3.490;2022-12-16T07:07:49;-3.40;99.90
56861;DHT22;42744;51.094;3.490;2022-12-16T07:10:34;-3.40;99.90
56861;DHT22;42744;51.094;3.490;2022-12-16T07:13:19;-3.40;99.90
56861;DHT22;42744;51.094;3.490;2022-12-16T07:16:06;-3.30;99.90
56861;DHT22;42744;51.094;3.490;2022-12-16T07:18:51;-3.40;99.90
56861;DHT22;42744;51.094;3.490;2022-12-16T07:21:35;-3.30;99.90
56861;DHT22;42744;51.094;3.490;2022-12-16T07:24:20;-3.30;99.90
56861;DHT22;42744;51.094;3.490;2022-12-16T07:27:04;-3.30;99.90
56861;DHT22;42744;51.094;3.490;2022-12-16T07:29:49;-3.30;99.90
56861;DHT22;42744;51.094;3.490;2022-12-16T07:32:33;-3.30;99.90
56861;DHT22;42744;51.094;3.490;2022-12-16T07:35:18;-3.40;99.90
56861;DHT22;42744;51.094;3.490;2022-12-16T07:38:03;-3.40;99.90
56861;DHT22;42744;51.094;3.490;2022-12-16T07:40:48;-3.40;99.90
56861;DHT22;42744;51.094;3.490;2022-12-16T07:43:33;-3.30;99.90
56861;DHT22;42744;51.094;3.490;2022-12-16T07:46:17;-3.30;99.90
56861;DHT22;42744;51.094;3.490;2022-12-16T07:49:03;-3.30;99.90
56861;DHT22;42744;51.094;3.490;2022-12-16T07:51:47;-3.30;99.90
56861;DHT22;42744;51.094;3.490;2022-12-16T07:54:32;-3.30;99.90
56861;DHT22;42744;51.094;3.490;2022-12-16T07:57:16;-3.40;99.90
56861;DHT22;42744;51.094;3.490;2022-12-16T08:00:02;-3.40;99.90
56861;DHT22;42744;51.094;3.490;2022-12-16T08:02:52;-3.50;99.90
56861;DHT22;42744;51.094;3.490;2022-12-16T08:05:37;-3.50;99.90
56861;DHT22;42744;51.094;3.490;2022-12-16T08:08:22;-3.40;99.90
56861;DHT22;42744;51.094;3.490;2022-12-16T08:11:06;-3.40;99.90
56861;DHT22;42744;51.094;3.490;2022-12-16T08:13:51;-3.40;99.90
56861;DHT22;42744;51.094;3.490;2022-12-16T08:16:35;-3.40;99.90
56861;DHT22;42744;51.094;3.490;2022-12-16T08:19:20;-3.40;99.90
56861;DHT22;42744;51.094;3.490;2022-12-16T08:22:05;-3.40;99.90
56861;DHT22;42744;51.094;3.490;2022-12-16T08:24:50;-3.40;99.90
56861;DHT22;42744;51.094;3.490;2022-12-16T08:27:34;-3.50;99.90
56861;DHT22;42744;51.094;3.490;2022-12-16T08:30:19;-3.40;99.90
56861;DHT22;42744;51.094;3.490;2022-12-16T08:33:03;-3.40;99.90
56861;DHT22;42744;51.094;3.490;2022-12-16T08:35:48;-3.40;99.90
56861;DHT22;42744;51.094;3.490;2022-12-16T08:38:33;-3.30;99.90
56861;DHT22;42744;51.094;3.490;2022-12-16T08:41:18;-3.30;99.90
56861;DHT22;42744;51.094;3.490;2022-12-16T08:44:02;-3.20;99.90
56861;DHT22;42744;51.094;3.490;2022-12-16T08:46:47;-3.20;99.90
56861;DHT22;42744;51.094;3.490;2022-12-16T08:49:32;-3.10;99.90
56861;DHT22;42744;51.094;3.490;2022-12-16T08:52:17;-3.00;99.90
56861;DHT22;42744;51.094;3.490;2022-12-16T08:55:02;-2.90;99.90
56861;DHT22;42744;51.094;3.490;2022-12-16T08:57:54;-2.80;99.90
56861;DHT22;42744;51.094;3.490;2022-12-16T09:00:38;-2.70;99.90
56861;DHT22;42744;51.094;3.490;2022-12-16T09:03:24;-2.50;99.90
56861;DHT22;42744;51.094;3.490;2022-12-16T09:06:09;-2.40;99.90
56861;DHT22;42744;51.094;3.490;2022-12-16T09:08:54;-2.20;99.90
56861;DHT22;42744;51.094;3.490;2022-12-16T09:11:39;-2.10;99.90
56861;DHT22;42744;51.094;3.490;2022-12-16T09:14:24;-1.90;99.90
56861;DHT22;42744;51.094;3.490;2022-12-16T09:17:08;-1.70;99.90
56861;DHT22;42744;51.094;3.490;2022-12-16T09:19:53;-1.60;99.90
56861;DHT22;42744;51.094;3.490;2022-12-16T09:22:37;-1.40;99.90
56861;DHT22;42744;51.094;3.490;2022-12-16T09:25:22;-1.30;99.90
56861;DHT22;42744;51.094;3.490;2022-12-16T09:28:09;-1.20;99.90
56861;DHT22;42744;51.094;3.490;2022-12-16T09:30:54;-1.00;99.90
56861;DHT22;42744;51.094;3.490;2022-12-16T09:33:39;-0.80;99.90
56861;DHT22;42744;51.094;3.490;2022-12-16T09:36:24;-0.70;99.90
56861;DHT22;42744;51.094;3.490;2022-12-16T09:39:09;-0.50;99.90
56861;DHT22;42744;51.094;3.490;2022-12-16T09:42:38;-0.30;99.90
56861;DHT22;42744;51.094;3.490;2022-12-16T09:45:22;-0.10;99.90
56861;DHT22;42744;51.094;3.490;2022-12-16T09:48:25;0.10;99.90
56861;DHT22;42744;51.094;3.490;2022-12-16T09:51:19;0.30;99.90
56861;DHT22;42744;51.094;3.490;2022-12-16T09:54:13;0.50;99.90
56861;DHT22;42744;51.094;3.490;2022-12-16T09:57:00;0.70;99.90
56861;DHT22;42744;51.094;3.490;2022-12-16T09:59:53;0.90;99.90
56861;DHT22;42744;51.094;3.490;2022-12-16T10:02:39;1.00;99.90
56861;DHT22;42744;51.094;3.490;2022-12-16T10:05:31;1.10;99.90
56861;DHT22;42744;51.094;3.490;2022-12-16T10:08:47;1.20;99.90
56861;DHT22;42744;51.094;3.490;2022-12-16T10:11:57;1.50;99.90
56861;DHT22;42744;51.094;3.490;2022-12-16T10:14:52;1.60;99.90
56861;DHT22;42744;51.094;3.490;2022-12-16T10:17:44;1.50;99.90
56861;DHT22;42744;51.094;3.490;2022-12-16T10:20:55;1.50;99.90
56861;DHT22;42744;51.094;3.490;2022-12-16T10:23:54;1.60;99.90
56861;DHT22;42744;51.094;3.490;2022-12-16T10:26:52;1.70;99.90
56861;DHT22;42744;51.094;3.490;2022-12-16T10:29:41;2.10;99.90
56861;DHT22;42744;51.094;3.490;2022-12-16T10:32:40;2.40;99.90
56861;DHT22;42744;51.094;3.490;2022-12-16T10:35:50;2.60;99.90
56861;DHT22;42744;51.094;3.490;2022-12-16T10:41:47;2.90;99.90
56861;DHT22;42744;51.094;3.490;2022-12-16T10:44:56;3.10;99.90
56861;DHT22;42744;51.094;3.490;2022-12-16T10:47:43;2.90;99.90
56861;DHT22;42744;51.094;3.490;2022-12-16T10:50:27;2.80;99.90
56861;DHT22;42744;51.094;3.490;2022-12-16T10:53:18;2.70;99.90
56861;DHT22;42744;51.094;3.490;2022-12-16T10:59:15;2.50;99.90
56861;DHT22;42744;51.094;3.490;2022-12-16T11:02:15;2.80;99.90
56861;DHT22;42744;51.094;3.490;2022-12-16T11:05:01;3.30;99.90
56861;DHT22;42744;51.094;3.490;2022-12-16T11:07:51;3.20;99.90
56861;DHT22;42744;51.094;3.490;2022-12-16T11:10:43;3.20;99.90
56861;DHT22;42744;51.094;3.490;2022-12-16T11:13:36;3.10;99.90
56861;DHT22;42744;51.094;3.490;2022-12-16T11:16:25;3.10;99.90
56861;DHT22;42744;51.094;3.490;2022-12-16T11:19:24;3.00;99.90
56861;DHT22;42744;51.094;3.490;2022-12-16T11:22:18;3.10;99.90
56861;DHT22;42744;51.094;3.490;2022-12-16T11:25:21;3.30;99.90
56861;DHT22;42744;51.094;3.490;2022-12-16T11:28:12;3.40;99.90
56861;DHT22;42744;51.094;3.490;2022-12-16T11:31:12;3.80;99.90
56861;DHT22;42744;51.094;3.490;2022-12-16T11:33:59;3.70;99.90
56861;DHT22;42744;51.094;3.490;2022-12-16T11:36:47;3.80;99.90
56861;DHT22;42744;51.094;3.490;2022-12-16T11:39:33;3.80;99.90
56861;DHT22;42744;51.094;3.490;2022-12-16T11:42:22;4.00;99.90
56861;DHT22;42744;51.094;3.490;2022-12-16T11:45:18;4.10;99.90
56861;DHT22;42744;51.094;3.490;2022-12-16T11:48:26;4.30;99.90
56861;DHT22;42744;51.094;3.490;2022-12-16T11:51:14;4.20;99.90
56861;DHT22;42744;51.094;3.490;2022-12-16T11:54:18;4.10;99.90
56861;DHT22;42744;51.094;3.490;2022-12-16T11:57:12;4.30;99.90
56861;DHT22;42744;51.094;3.490;2022-12-16T12:00:00;4.50;99.90
56861;DHT22;42744;51.094;3.490;2022-12-16T12:03:05;4.60;99.90
56861;DHT22;42744;51.094;3.490;2022-12-16T12:09:12;4.20;99.90
56861;DHT22;42744;51.094;3.490;2022-12-16T12:12:21;4.10;99.90
56861;DHT22;42744;51.094;3.490;2022-12-16T12:15:38;4.00;99.90
56861;DHT22;42744;51.094;3.490;2022-12-16T12:18:37;4.10;99.90
56861;DHT22;42744;51.094;3.490;2022-12-16T12:21:26;4.10;99.90
56861;DHT22;42744;51.094;3.490;2022-12-16T12:30:25;4.60;99.90
56861;DHT22;42744;51.094;3.490;2022-12-16T12:36:27;4.70;99.90
56861;DHT22;42744;51.094;3.490;2022-12-16T12:42:24;4.90;99.90
56861;DHT22;42744;51.094;3.490;2022-12-16T12:48:34;5.10;99.90
56861;DHT22;42744;51.094;3.490;2022-12-16T12:51:30;5.10;99.90
56861;DHT22;42744;51.094;3.490;2022-12-16T12:57:36;5.10;99.90
56861;DHT22;42744;51.094;3.490;2022-12-16T13:00:24;5.20;99.90
56861;DHT22;42744;51.094;3.490;2022-12-16T13:06:05;5.30;99.90
56861;DHT22;42744;51.094;3.490;2022-12-16T13:11:36;5.20;99.90
56861;DHT22;42744;51.094;3.490;2022-12-16T13:17:20;5.30;99.90
56861;DHT22;42744;51.094;3.490;2022-12-16T13:23:40;4.90;99.90
56861;DHT22;42744;51.094;3.490;2022-12-16T13:26:27;4.70;99.90
56861;DHT22;42744;51.094;3.490;2022-12-16T13:29:20;4.60;99.90
56861;DHT22;42744;51.094;3.490;2022-12-16T13:35:02;4.50;99.90
56861;DHT22;42744;51.094;3.490;2022-12-16T13:38:03;4.50;99.90
56861;DHT22;42744;51.094;3.490;2022-12-16T13:40:58;4.40;99.90
56861;DHT22;42744;51.094;3.490;2022-12-16T13:43:45;4.50;99.90
56861;DHT22;42744;51.094;3.490;2022-12-16T13:49:39;4.50;99.90
56861;DHT22;42744;51.094;3.490;2022-12-16T13:58:34;4.40;99.90
56861;DHT22;42744;51.094;3.490;2022-12-16T14:04:38;4.40;99.90
56861;DHT22;42744;51.094;3.490;2022-12-16T14:07:26;4.40;99.90
56861;DHT22;42744;51.094;3.490;2022-12-16T14:10:35;4.20;99.90
56861;DHT22;42744;51.094;3.490;2022-12-16T14:13:57;3.90;99.90
56861;DHT22;42744;51.094;3.490;2022-12-16T14:17:00;3.70;99.90
56861;DHT22;42744;51.094;3.490;2022-12-16T14:20:20;3.60;99.90
56861;DHT22;42744;51.094;3.490;2022-12-16T14:23:28;3.60;99.90
56861;DHT22;42744;51.094;3.490;2022-12-16T14:26:15;3.50;99.90
56861;DHT22;42744;51.094;3.490;2022-12-16T14:29:02;3.50;99.90
56861;DHT22;42744;51.094;3.490;2022-12-16T14:31:47;3.50;99.90
56861;DHT22;42744;51.094;3.490;2022-12-16T14:34:35;3.40;99.90
56861;DHT22;42744;51.094;3.490;2022-12-16T14:37:33;3.30;99.90
56861;DHT22;42744;51.094;3.490;2022-12-16T14:40:24;3.20;99.90
56861;DHT22;42744;51.094;3.490;2022-12-16T14:45:57;3.00;99.90
56861;DHT22;42744;51.094;3.490;2022-12-16T14:48:45;2.90;99.90
56861;DHT22;42744;51.094;3.490;2022-12-16T14:51:44;2.70;99.90
56861;DHT22;42744;51.094;3.490;2022-12-16T14:54:37;2.60;99.90
56861;DHT22;42744;51.094;3.490;2022-12-16T14:57:25;2.40;99.90
56861;DHT22;42744;51.094;3.490;2022-12-16T15:00:21;2.40;99.90
56861;DHT22;42744;51.094;3.490;2022-12-16T15:06:03;2.20;99.90
56861;DHT22;42744;51.094;3.490;2022-12-16T15:08:56;2.10;99.90
56861;DHT22;42744;51.094;3.490;2022-12-16T15:11:42;2.00;99.90
56861;DHT22;42744;51.094;3.490;2022-12-16T15:14:31;1.90;99.90
56861;DHT22;42744;51.094;3.490;2022-12-16T15:17:30;1.80;99.90
56861;DHT22;42744;51.094;3.490;2022-12-16T15:20:20;1.70;99.90
56861;DHT22;42744;51.094;3.490;2022-12-16T15:23:32;1.60;99.90
56861;DHT22;42744;51.094;3.490;2022-12-16T15:26:20;1.40;99.90
56861;DHT22;42744;51.094;3.490;2022-12-16T15:35:26;1.10;99.90
56861;DHT22;42744;51.094;3.490;2022-12-16T15:41:04;0.90;99.90
56861;DHT22;42744;51.094;3.490;2022-12-16T15:43:50;0.80;99.90
56861;DHT22;42744;51.094;3.490;2022-12-16T15:46:35;0.80;99.90
56861;DHT22;42744;51.094;3.490;2022-12-16T15:49:21;0.70;99.90
56861;DHT22;42744;51.094;3.490;2022-12-16T15:55:29;0.50;99.90
56861;DHT22;42744;51.094;3.490;2022-12-16T16:01:03;0.40;99.90
56861;DHT22;42744;51.094;3.490;2022-12-16T16:03:53;0.40;99.90
56861;DHT22;42744;51.094;3.490;2022-12-16T16:06:47;0.30;99.90
56861;DHT22;42744;51.094;3.490;2022-12-16T16:09:33;0.30;99.90
56861;DHT22;42744;51.094;3.490;2022-12-16T16:12:20;0.20;99.90
56861;DHT22;42744;51.094;3.490;2022-12-16T16:15:08;0.10;99.90
56861;DHT22;42744;51.094;3.490;2022-12-16T16:17:58;0.00;99.90
56861;DHT22;42744;51.094;3.490;2022-12-16T16:20:47;-0.10;99.90
56861;DHT22;42744;51.094;3.490;2022-12-16T16:23:33;-0.10;99.90
56861;DHT22;42744;51.094;3.490;2022-12-16T16:26:21;-0.10;99.90
56861;DHT22;42744;51.094;3.490;2022-12-16T16:29:09;-0.20;99.90
56861;DHT22;42744;51.094;3.490;2022-12-16T16:31:54;-0.20;99.90
56861;DHT22;42744;51.094;3.490;2022-12-16T16:34:39;-0.20;99.90
56861;DHT22;42744;51.094;3.490;2022-12-16T16:37:24;-0.30;99.90
56861;DHT22;42744;51.094;3.490;2022-12-16T16:40:36;-0.30;99.90
56861;DHT22;42744;51.094;3.490;2022-12-16T16:43:22;-0.30;99.90
56861;DHT22;42744;51.094;3.490;2022-12-16T16:49:10;-0.50;99.90
56861;DHT22;42744;51.094;3.490;2022-12-16T16:51:55;-0.50;99.90
56861;DHT22;42744;51.094;3.490;2022-12-16T16:54:40;-0.60;99.90
56861;DHT22;42744;51.094;3.490;2022-12-16T16:57:26;-0.60;99.90
56861;DHT22;42744;51.094;3.490;2022-12-16T17:00:15;-0.70;99.90
56861;DHT22;42744;51.094;3.490;2022-12-16T17:03:00;-0.70;99.90
56861;DHT22;42744;51.094;3.490;2022-12-16T17:05:47;-0.80;99.90
56861;DHT22;42744;51.094;3.490;2022-12-16T17:08:33;-0.80;99.90
56861;DHT22;42744;51.094;3.490;2022-12-16T17:11:20;-0.80;99.90
56861;DHT22;42744;51.094;3.490;2022-12-16T17:14:14;-0.90;99.90
56861;DHT22;42744;51.094;3.490;2022-12-16T17:17:00;-0.90;99.90
56861;DHT22;42744;51.094;3.490;2022-12-16T17:19:45;-1.00;99.90
56861;DHT22;42744;51.094;3.490;2022-12-16T17:22:30;-1.10;99.90
56861;DHT22;42744;51.094;3.490;2022-12-16T17:25:15;-1.10;99.90
56861;DHT22;42744;51.094;3.490;2022-12-16T17:28:02;-1.10;99.90
56861;DHT22;42744;51.094;3.490;2022-12-16T17:30:47;-1.10;99.90
56861;DHT22;42744;51.094;3.490;2022-12-16T17:33:32;-1.10;99.90
56861;DHT22;42744;51.094;3.490;2022-12-16T17:36:17;-1.20;99.90
56861;DHT22;42744;51.094;3.490;2022-12-16T17:39:03;-1.30;99.90
56861;DHT22;42744;51.094;3.490;2022-12-16T17:41:48;-1.30;99.90
56861;DHT22;42744;51.094;3.490;2022-12-16T17:44:32;-1.30;99.90
56861;DHT22;42744;51.094;3.490;2022-12-16T17:47:17;-1.40;99.90
56861;DHT22;42744;51.094;3.490;2022-12-16T17:50:03;-1.40;99.90
56861;DHT22;42744;51.094;3.490;2022-12-16T17:52:47;-1.50;99.90
56861;DHT22;42744;51.094;3.490;2022-12-16T17:55:32;-1.50;99.90
56861;DHT22;42744;51.094;3.490;2022-12-16T17:58:17;-1.60;99.90
56861;DHT22;42744;51.094;3.490;2022-12-16T18:01:04;-1.60;99.90
56861;DHT22;42744;51.094;3.490;2022-12-16T18:03:50;-1.60;99.90
56861;DHT22;42744;51.094;3.490;2022-12-16T18:06:35;-1.70;99.90
56861;DHT22;42744;51.094;3.490;2022-12-16T18:09:20;-1.70;99.90
56861;DHT22;42744;51.094;3.490;2022-12-16T18:12:04;-1.80;99.90
56861;DHT22;42744;51.094;3.490;2022-12-16T18:14:49;-1.80;99.90
56861;DHT22;42744;51.094;3.490;2022-12-16T18:17:34;-1.80;99.90
56861;DHT22;42744;51.094;3.490;2022-12-16T18:20:19;-1.80;99.90
56861;DHT22;42744;51.094;3.490;2022-12-16T18:23:03;-1.80;99.90
56861;DHT22;42744;51.094;3.490;2022-12-16T18:26:00;-1.90;99.90
56861;DHT22;42744;51.094;3.490;2022-12-16T18:28:45;-1.90;99.90
56861;DHT22;42744;51.094;3.490;2022-12-16T18:31:29;-1.90;99.90
56861;DHT22;42744;51.094;3.490;2022-12-16T18:34:14;-1.90;99.90
56861;DHT22;42744;51.094;3.490;2022-12-16T18:36:59;-1.90;99.90
56861;DHT22;42744;51.094;3.490;2022-12-16T18:39:43;-2.00;99.90
56861;DHT22;42744;51.094;3.490;2022-12-16T18:42:28;-2.00;99.90
56861;DHT22;42744;51.094;3.490;2022-12-16T18:45:13;-2.10;99.90
56861;DHT22;42744;51.094;3.490;2022-12-16T18:47:58;-2.10;99.90
56861;DHT22;42744;51.094;3.490;2022-12-16T18:50:43;-2.20;99.90
56861;DHT22;42744;51.094;3.490;2022-12-16T18:53:28;-2.20;99.90
56861;DHT22;42744;51.094;3.490;2022-12-16T18:56:12;-2.20;99.90
56861;DHT22;42744;51.094;3.490;2022-12-16T18:58:58;-2.20;99.90
56861;DHT22;42744;51.094;3.490;2022-12-16T19:01:42;-2.20;99.90
56861;DHT22;42744;51.094;3.490;2022-12-16T19:04:27;-2.20;99.90
56861;DHT22;42744;51.094;3.490;2022-12-16T19:07:12;-2.30;99.90
56861;DHT22;42744;51.094;3.490;2022-12-16T19:09:56;-2.30;99.90
56861;DHT22;42744;51.094;3.490;2022-12-16T19:12:41;-2.30;99.90
56861;DHT22;42744;51.094;3.490;2022-12-16T19:15:25;-2.40;99.90